createdAt,value
2019-03-28T00:00:49.818Z,25.65
2019-03-28T00:03:19.492Z,27.30
2019-03-28T00:05:49.099Z,28.32
2019-03-28T00:08:18.621Z,31.42
2019-03-28T00:10:48.275Z,26.87
2019-03-28T00:13:17.777Z,27.77
2019-03-28T00:15:47.369Z,27.02
2019-03-28T00:18:17.045Z,28.30
2019-03-28T00:20:46.639Z,27.60
2019-03-28T00:23:24.826Z,29.77
2019-03-28T00:25:54.448Z,29.12
2019-03-28T00:28:24.046Z,26.65
2019-03-28T00:30:55.003Z,27.75
2019-03-28T00:33:24.526Z,26.62
2019-03-28T00:35:54.210Z,24.65
2019-03-28T00:38:23.820Z,27.82
2019-03-28T00:40:53.331Z,24.80
2019-03-28T00:43:22.936Z,26.37
2019-03-28T00:45:52.536Z,27.55
2019-03-28T00:48:22.145Z,27.07
2019-03-28T00:50:51.647Z,26.82
2019-03-28T00:53:21.270Z,27.70
2019-03-28T00:55:50.790Z,27.93
2019-03-28T00:58:20.461Z,24.98
2019-03-28T01:00:50.062Z,27.30
2019-03-28T01:03:19.655Z,28.45
2019-03-28T01:05:49.309Z,27.60
2019-03-28T01:08:18.978Z,27.15
2019-03-28T01:10:48.558Z,28.92
2019-03-28T01:13:18.152Z,28.45
2019-03-28T01:15:47.666Z,26.80
2019-03-28T01:18:17.450Z,28.07
2019-03-28T01:20:47.897Z,30.75
2019-03-28T01:23:17.598Z,27.07
2019-03-28T01:25:47.103Z,29.80
2019-03-28T01:28:17.103Z,27.50
2019-03-28T01:30:46.606Z,30.23
2019-03-28T01:33:16.225Z,26.57
2019-03-28T01:35:45.706Z,25.68
2019-03-28T01:38:15.349Z,31.00
2019-03-28T01:40:45.023Z,31.12
2019-03-28T01:43:14.692Z,29.48
2019-03-28T01:45:44.423Z,35.52
2019-03-28T01:48:14.117Z,27.05
2019-03-28T01:50:44.863Z,27.60
2019-03-28T01:53:14.533Z,29.67
2019-03-28T01:55:44.113Z,28.70
2019-03-28T01:58:13.695Z,27.95
2019-03-28T02:00:43.389Z,26.48
2019-03-28T02:03:12.895Z,31.42
2019-03-28T02:05:43.312Z,29.20
2019-03-28T02:08:12.984Z,26.55
2019-03-28T02:10:42.667Z,34.27
2019-03-28T02:13:12.261Z,27.87
2019-03-28T02:15:41.943Z,33.35
2019-03-28T02:18:11.462Z,29.82
2019-03-28T02:20:40.970Z,27.95
2019-03-28T02:23:10.623Z,28.87
2019-03-28T02:25:40.210Z,30.20
2019-03-28T02:28:09.805Z,29.27
2019-03-28T02:30:39.391Z,31.07
2019-03-28T02:33:08.895Z,27.82
2019-03-28T02:35:38.397Z,31.77
2019-03-28T02:38:07.963Z,28.00
2019-03-28T02:40:37.556Z,29.80
2019-03-28T02:43:07.220Z,33.20
2019-03-28T02:45:36.718Z,30.23
2019-03-28T02:48:06.371Z,30.27
2019-03-28T02:50:35.976Z,29.15
2019-03-28T02:53:05.546Z,30.52
2019-03-28T02:55:35.053Z,29.42
2019-03-28T02:58:04.602Z,31.20
2019-03-28T03:00:34.195Z,31.42
2019-03-28T03:03:03.990Z,33.60
2019-03-28T03:05:33.733Z,30.12
2019-03-28T03:08:03.314Z,28.85
2019-03-28T03:10:32.811Z,32.13
2019-03-28T03:13:02.397Z,32.15
2019-03-28T03:15:32.049Z,28.85
2019-03-28T03:18:01.689Z,31.57
2019-03-28T03:20:31.179Z,31.05
2019-03-28T03:23:00.690Z,31.68
2019-03-28T03:25:30.339Z,27.82
2019-03-28T03:27:59.848Z,32.17
2019-03-28T03:30:31.441Z,40.08
2019-03-28T03:33:00.651Z,34.40
2019-03-28T03:35:30.228Z,31.07
2019-03-28T03:37:59.867Z,32.25
2019-03-28T03:40:29.454Z,31.80
2019-03-28T03:42:59.054Z,33.35
2019-03-28T03:45:28.638Z,32.42
2019-03-28T03:47:58.231Z,31.37
2019-03-28T03:50:29.117Z,29.72
2019-03-28T03:52:58.824Z,33.28
2019-03-28T03:55:28.339Z,33.53
2019-03-28T03:58:14.463Z,36.65
2019-03-28T04:00:33.570Z,32.17
2019-03-28T04:03:03.404Z,38.08
2019-03-28T04:05:33.085Z,31.68
2019-03-28T04:08:02.778Z,35.98
2019-03-28T04:10:32.340Z,37.80
2019-03-28T04:13:01.941Z,31.33
2019-03-28T04:15:31.589Z,39.80
2019-03-28T04:18:01.180Z,36.60
2019-03-28T04:20:30.834Z,33.53
2019-03-28T04:23:00.527Z,33.90
2019-03-28T04:25:30.024Z,32.05
2019-03-28T04:27:59.544Z,34.18
2019-03-28T04:30:29.126Z,34.83
2019-03-28T04:32:58.705Z,32.15
2019-03-28T04:35:28.208Z,34.90
2019-03-28T04:37:58.615Z,30.20
2019-03-28T04:40:28.343Z,38.48
2019-03-28T04:42:57.854Z,33.38
2019-03-28T04:45:27.432Z,32.95
2019-03-28T04:47:57.106Z,31.85
2019-03-28T04:50:26.684Z,34.85
2019-03-28T04:52:56.373Z,34.58
2019-03-28T04:55:25.946Z,32.67
2019-03-28T04:57:55.660Z,33.50
2019-03-28T05:00:25.269Z,36.38
2019-03-28T05:02:54.870Z,33.98
2019-03-28T05:05:24.393Z,30.25
2019-03-28T05:07:53.908Z,30.62
2019-03-28T05:10:23.389Z,29.55
2019-03-28T05:12:53.001Z,30.27
2019-03-28T05:15:22.597Z,33.05
2019-03-28T05:17:52.289Z,34.92
2019-03-28T05:20:21.825Z,34.25
2019-03-28T05:22:51.496Z,30.05
2019-03-28T05:25:21.075Z,34.92
2019-03-28T05:27:50.695Z,33.67
2019-03-28T05:30:20.304Z,34.18
2019-03-28T05:32:49.822Z,33.53
2019-03-28T05:35:19.406Z,31.80
2019-03-28T05:37:48.988Z,31.27
2019-03-28T05:40:18.490Z,34.27
2019-03-28T05:42:48.073Z,33.53
2019-03-28T05:45:17.724Z,32.48
2019-03-28T05:47:47.231Z,33.88
2019-03-28T05:50:16.810Z,32.78
2019-03-28T05:52:47.540Z,30.30
2019-03-28T05:55:17.037Z,33.95
2019-03-28T05:57:47.867Z,36.17
2019-03-28T06:00:17.542Z,36.33
2019-03-28T06:02:47.734Z,36.35
2019-03-28T06:05:17.353Z,33.48
2019-03-28T06:07:48.995Z,36.48
2019-03-28T06:10:18.685Z,33.98
2019-03-28T06:12:53.105Z,35.03
2019-03-28T06:19:10.860Z,37.65
2019-03-28T06:22:20.631Z,34.38
2019-03-28T06:24:54.808Z,35.95
2019-03-28T06:31:58.236Z,32.33
2019-03-28T06:34:29.074Z,32.23
2019-03-28T06:37:00.562Z,34.45
2019-03-28T06:39:30.158Z,35.95
2019-03-28T06:41:59.691Z,34.00
2019-03-28T06:44:29.218Z,34.33
2019-03-28T06:47:01.656Z,33.45
2019-03-28T06:49:31.239Z,34.53
2019-03-28T06:52:00.761Z,31.37
2019-03-28T06:54:32.754Z,30.62
2019-03-28T06:57:02.354Z,32.70
2019-03-28T06:59:37.679Z,31.70
2019-03-28T07:02:03.157Z,29.95
2019-03-28T07:04:32.787Z,28.40
2019-03-28T07:07:02.351Z,30.05
2019-03-28T07:09:31.888Z,29.92
2019-03-28T07:12:01.536Z,28.02
2019-03-28T07:14:31.173Z,26.75
2019-03-28T07:17:00.701Z,26.40
2019-03-28T07:19:30.313Z,27.90
2019-03-28T07:22:01.871Z,31.65
2019-03-28T07:24:31.077Z,24.77
2019-03-28T07:27:00.643Z,29.40
2019-03-28T07:29:30.202Z,24.32
2019-03-28T07:31:59.789Z,27.02
2019-03-28T07:34:29.287Z,27.05
2019-03-28T07:36:58.934Z,25.95
2019-03-28T07:39:28.544Z,25.80
2019-03-28T07:41:58.115Z,27.15
2019-03-28T07:44:28.600Z,28.20
2019-03-28T07:46:58.172Z,27.42
2019-03-28T07:49:30.646Z,22.25
2019-03-28T07:52:00.210Z,29.87
2019-03-28T07:54:29.722Z,30.85
2019-03-28T07:56:59.206Z,23.12
2019-03-28T07:59:28.842Z,27.82
2019-03-28T08:01:58.522Z,24.40
2019-03-28T08:04:28.140Z,25.80
2019-03-28T08:06:57.669Z,24.55
2019-03-28T08:09:36.632Z,21.07
2019-03-28T08:11:58.928Z,16.97
2019-03-28T08:14:28.606Z,16.85
2019-03-28T08:16:58.077Z,19.73
2019-03-28T08:19:27.621Z,21.23
2019-03-28T08:21:57.158Z,19.50
2019-03-28T08:24:26.749Z,19.75
2019-03-28T08:26:56.275Z,17.70
2019-03-28T08:29:25.961Z,20.80
2019-03-28T08:31:55.957Z,19.67
2019-03-28T08:34:25.563Z,15.88
2019-03-28T08:36:55.283Z,16.60
2019-03-28T08:39:25.062Z,19.45
2019-03-28T08:41:54.727Z,13.88
2019-03-28T08:44:24.319Z,17.85
2019-03-28T08:46:53.905Z,20.52
2019-03-28T08:49:23.434Z,15.43
2019-03-28T08:51:52.934Z,16.37
2019-03-28T08:54:22.376Z,21.12
2019-03-28T08:56:51.918Z,21.60
2019-03-28T08:59:21.586Z,20.90
2019-03-28T09:01:51.110Z,18.02
2019-03-28T09:04:20.670Z,22.35
2019-03-28T09:06:50.232Z,22.30
2019-03-28T09:09:21.321Z,17.98
2019-03-28T09:11:51.009Z,18.85
2019-03-28T09:14:20.526Z,20.17
2019-03-28T09:16:50.199Z,17.32
2019-03-28T09:19:19.719Z,15.03
2019-03-28T09:21:49.242Z,16.52
2019-03-28T09:24:18.764Z,18.87
2019-03-28T09:26:48.271Z,17.25
2019-03-28T09:29:17.858Z,18.12
2019-03-28T09:31:47.641Z,20.92
2019-03-28T09:34:17.454Z,12.53
2019-03-28T09:36:46.979Z,13.85
2019-03-28T09:39:16.599Z,12.33
2019-03-28T09:41:46.206Z,11.50
2019-03-28T09:44:15.893Z,15.63
2019-03-28T09:46:45.412Z,15.08
2019-03-28T09:49:14.995Z,17.07
2019-03-28T09:51:44.605Z,14.68
2019-03-28T09:54:14.210Z,13.60
2019-03-28T09:56:43.913Z,14.10
2019-03-28T09:59:13.533Z,15.00
2019-03-28T10:01:43.201Z,13.70
2019-03-28T10:04:12.932Z,16.48
2019-03-28T10:06:42.598Z,12.85
2019-03-28T10:09:12.299Z,13.25
2019-03-28T10:11:41.892Z,10.93
2019-03-28T10:14:11.491Z,15.08
2019-03-28T10:16:41.087Z,11.05
2019-03-28T10:19:10.686Z,11.97
2019-03-28T10:21:40.392Z,12.70
2019-03-28T10:24:09.926Z,11.57
2019-03-28T10:26:39.562Z,10.65
2019-03-28T10:29:09.141Z,9.60
2019-03-28T10:31:38.932Z,11.20
2019-03-28T10:34:08.632Z,10.18
2019-03-28T10:36:38.087Z,9.85
2019-03-28T10:39:09.413Z,10.90
2019-03-28T10:41:39.975Z,9.93
2019-03-28T10:44:09.675Z,8.40
2019-03-28T10:46:40.703Z,14.15
2019-03-28T10:49:10.299Z,11.43
2019-03-28T10:51:39.821Z,10.32
2019-03-28T10:54:19.998Z,13.18
2019-03-28T10:56:51.185Z,12.35
2019-03-28T10:59:22.744Z,12.40
2019-03-28T11:01:50.224Z,14.55
2019-03-28T11:04:14.489Z,13.85
2019-03-28T11:06:44.081Z,12.03
2019-03-28T11:09:13.607Z,10.80
2019-03-28T11:11:43.204Z,13.55
2019-03-28T11:14:12.815Z,11.65
2019-03-28T11:16:42.407Z,14.85
2019-03-28T11:19:15.455Z,13.90
2019-03-28T11:21:43.363Z,10.25
2019-03-28T11:24:12.963Z,11.73
2019-03-28T11:26:42.485Z,9.00
2019-03-28T11:29:12.181Z,13.10
2019-03-28T11:31:46.951Z,8.68
2019-03-28T11:34:12.884Z,13.55
2019-03-28T11:36:42.281Z,11.80
2019-03-28T11:39:11.788Z,12.37
2019-03-28T11:41:41.194Z,11.83
2019-03-28T11:44:11.533Z,9.65
2019-03-28T11:46:41.088Z,15.08
2019-03-28T11:49:10.676Z,13.08
2019-03-28T11:51:40.230Z,17.00
2019-03-28T11:54:09.816Z,11.10
2019-03-28T11:56:39.325Z,13.38
2019-03-28T11:59:08.846Z,18.17
2019-03-28T12:01:38.301Z,13.93
2019-03-28T12:04:07.893Z,15.28
2019-03-28T12:06:37.485Z,16.97
2019-03-28T12:09:08.261Z,17.75
2019-03-28T12:11:37.762Z,12.90
2019-03-28T12:14:07.274Z,14.43
2019-03-28T12:16:36.749Z,12.68
2019-03-28T12:19:06.432Z,13.95
2019-03-28T12:21:36.051Z,14.15
2019-03-28T12:24:05.736Z,10.58
2019-03-28T12:26:35.248Z,13.88
2019-03-28T12:29:05.866Z,12.00
2019-03-28T12:31:35.691Z,13.00
2019-03-28T12:34:05.282Z,12.58
2019-03-28T12:36:34.897Z,15.88
2019-03-28T12:39:05.514Z,14.10
2019-03-28T12:41:34.971Z,17.20
2019-03-28T12:44:04.634Z,11.78
2019-03-28T12:46:34.152Z,15.60
2019-03-28T12:49:03.663Z,18.02
2019-03-28T12:51:33.296Z,10.38
2019-03-28T12:54:02.848Z,12.07
2019-03-28T12:56:32.386Z,12.45
2019-03-28T12:59:01.897Z,10.72
2019-03-28T13:01:31.418Z,13.90
2019-03-28T13:04:00.906Z,13.85
2019-03-28T13:06:30.589Z,9.30
2019-03-28T13:09:00.104Z,10.13
2019-03-28T13:11:29.653Z,10.10
2019-03-28T13:13:59.166Z,10.85
2019-03-28T13:16:28.767Z,11.48
2019-03-28T13:18:58.254Z,12.63
2019-03-28T13:21:27.770Z,11.63
2019-03-28T13:23:57.424Z,11.93
2019-03-28T13:26:26.982Z,12.23
2019-03-28T13:28:56.446Z,12.37
2019-03-28T13:31:25.934Z,10.35
2019-03-28T13:33:55.348Z,11.18
2019-03-28T13:36:24.815Z,10.95
2019-03-28T13:38:54.184Z,12.50
2019-03-28T13:41:26.768Z,11.03
2019-03-28T13:43:56.756Z,9.23
2019-03-28T13:46:26.329Z,12.37
2019-03-28T13:48:55.798Z,8.13
2019-03-28T13:51:25.223Z,10.50
2019-03-28T13:53:54.597Z,16.20
2019-03-28T13:56:24.054Z,15.68
2019-03-28T13:58:53.456Z,15.48
2019-03-28T14:01:22.861Z,18.50
2019-03-28T14:03:52.220Z,9.80
2019-03-28T14:06:21.611Z,12.93
2019-03-28T14:08:51.006Z,14.00
2019-03-28T14:11:20.468Z,14.70
2019-03-28T14:13:49.943Z,13.85
2019-03-28T14:16:19.417Z,13.78
2019-03-28T14:18:48.884Z,12.60
2019-03-28T14:21:18.283Z,11.68
2019-03-28T14:23:47.751Z,13.38
2019-03-28T14:26:17.206Z,16.35
2019-03-28T14:28:46.661Z,11.25
2019-03-28T14:31:16.237Z,17.15
2019-03-28T14:33:45.778Z,11.20
2019-03-28T14:36:15.300Z,15.13
2019-03-28T14:38:44.848Z,18.40
2019-03-28T14:41:14.240Z,14.60
2019-03-28T14:43:43.620Z,9.50
2019-03-28T14:46:13.023Z,13.40
2019-03-28T14:48:42.602Z,13.00
2019-03-28T14:51:12.167Z,17.75
2019-03-28T14:53:41.573Z,14.20
2019-03-28T14:56:11.219Z,11.60
2019-03-28T14:58:41.761Z,15.75
2019-03-28T15:01:11.238Z,13.13
2019-03-28T15:03:40.706Z,12.45
2019-03-28T15:06:10.173Z,13.72
2019-03-28T15:08:39.633Z,11.25
2019-03-28T15:11:09.201Z,17.65
2019-03-28T15:13:40.485Z,17.98
2019-03-28T15:16:09.887Z,15.32
2019-03-28T15:18:39.340Z,12.73
2019-03-28T15:21:08.896Z,14.10
2019-03-28T15:23:38.300Z,12.28
2019-03-28T15:26:07.849Z,12.18
2019-03-28T15:28:37.379Z,12.80
2019-03-28T15:31:06.940Z,13.25
2019-03-28T15:33:39.935Z,12.88
2019-03-28T15:36:07.593Z,17.92
2019-03-28T15:38:37.061Z,15.43
2019-03-28T15:41:06.540Z,20.45
2019-03-28T15:43:36.039Z,18.07
2019-03-28T15:46:05.430Z,12.95
2019-03-28T15:48:35.573Z,14.83
2019-03-28T15:51:05.283Z,16.60
2019-03-28T15:53:34.663Z,11.15
2019-03-28T15:56:04.236Z,14.05
2019-03-28T15:58:33.767Z,13.13
2019-03-28T16:01:03.325Z,12.78
2019-03-28T16:03:32.717Z,12.00
2019-03-28T16:06:02.093Z,12.70
2019-03-28T16:08:32.953Z,11.95
2019-03-28T16:11:03.920Z,11.22
2019-03-28T16:13:33.400Z,15.55
2019-03-28T16:16:02.823Z,13.03
2019-03-28T16:18:34.777Z,10.95
2019-03-28T16:21:06.545Z,16.00
2019-03-28T16:23:35.957Z,11.90
2019-03-28T16:26:05.556Z,12.45
2019-03-28T16:28:35.055Z,15.72
2019-03-28T16:31:04.524Z,14.35
2019-03-28T16:33:34.068Z,13.18
2019-03-28T16:36:03.577Z,18.77
2019-03-28T16:38:33.269Z,14.93
2019-03-28T16:41:02.858Z,16.70
2019-03-28T16:43:32.304Z,16.80
2019-03-28T16:46:01.839Z,18.05
2019-03-28T16:48:31.294Z,16.48
2019-03-28T16:51:00.770Z,17.67
2019-03-28T16:53:30.247Z,19.30
2019-03-28T16:55:59.719Z,16.80
2019-03-28T16:58:29.116Z,18.42
2019-03-28T17:00:58.700Z,21.37
2019-03-28T17:03:28.167Z,18.42
2019-03-28T17:05:58.646Z,17.32
2019-03-28T17:08:29.539Z,14.93
2019-03-28T17:10:59.095Z,16.23
2019-03-28T17:13:28.679Z,16.27
2019-03-28T17:15:58.237Z,17.52
2019-03-28T17:18:29.657Z,17.65
2019-03-28T17:20:59.121Z,16.75
2019-03-28T17:23:28.685Z,15.83
2019-03-28T17:25:58.258Z,14.85
2019-03-28T17:28:27.736Z,15.68
2019-03-28T17:30:57.206Z,17.62
2019-03-28T17:33:27.092Z,14.05
2019-03-28T17:35:56.520Z,16.90
2019-03-28T17:38:28.992Z,18.87
2019-03-28T17:40:58.535Z,18.12
2019-03-28T17:43:27.983Z,15.08
2019-03-28T17:45:57.469Z,14.95
2019-03-28T17:48:28.508Z,19.62
2019-03-28T17:51:04.586Z,15.70
2019-03-28T17:53:34.072Z,15.10
2019-03-28T17:56:03.937Z,15.53
2019-03-28T17:58:33.383Z,15.98
2019-03-28T18:01:02.938Z,16.27
2019-03-28T18:03:33.645Z,17.27
2019-03-28T18:06:03.255Z,17.48
2019-03-28T18:08:37.898Z,17.57
2019-03-28T18:11:07.533Z,19.90
2019-03-28T18:16:59.672Z,19.45
2019-03-28T18:19:39.239Z,22.05
2019-03-28T18:22:13.999Z,21.23
2019-03-28T18:24:49.598Z,20.65
2019-03-28T18:27:22.908Z,19.95
2019-03-28T18:29:53.797Z,17.57
2019-03-28T18:32:24.897Z,19.42
2019-03-28T18:35:05.018Z,16.70
2019-03-28T18:37:32.976Z,18.30
2019-03-28T18:40:10.586Z,18.48
2019-03-28T18:42:49.456Z,18.37
2019-03-28T18:45:21.045Z,19.10
2019-03-28T18:48:02.699Z,22.07
2019-03-28T18:50:40.894Z,16.05
2019-03-28T18:53:08.913Z,17.80
2019-03-28T18:55:38.369Z,19.17
2019-03-28T18:58:07.977Z,19.60
2019-03-28T19:00:37.516Z,18.98
2019-03-28T19:03:07.152Z,23.25
2019-03-28T19:05:36.712Z,18.30
2019-03-28T19:08:06.226Z,21.70
2019-03-28T19:43:02.584Z,19.25
2019-03-28T19:45:49.054Z,19.27
2019-03-28T19:48:35.566Z,19.48
2019-03-28T19:51:22.846Z,25.25
2019-03-28T19:54:10.287Z,19.57
2019-03-28T19:56:57.486Z,20.37
2019-03-28T19:59:43.998Z,18.37
2019-03-28T20:02:31.136Z,20.30
2019-03-28T20:05:17.660Z,25.20
2019-03-28T20:11:02.085Z,20.50
2019-03-28T20:13:52.084Z,18.37
2019-03-28T20:16:39.627Z,29.80
2019-03-28T20:19:27.049Z,24.87
2019-03-28T20:22:14.644Z,18.42
2019-03-28T20:25:01.963Z,18.12
2019-03-28T20:27:49.737Z,20.57
2019-03-28T20:30:36.493Z,22.22
2019-03-28T20:33:24.990Z,26.05
2019-03-28T20:36:35.786Z,22.45
2019-03-28T20:39:04.245Z,25.88
2019-03-28T20:41:47.881Z,27.07
2019-03-28T20:44:35.102Z,22.10
2019-03-28T20:47:23.258Z,25.25
2019-03-28T20:50:10.510Z,25.15
2019-03-28T20:52:57.660Z,29.72
2019-03-28T20:55:44.817Z,24.55
2019-03-28T20:58:32.100Z,20.82
2019-03-28T21:01:19.533Z,21.73
2019-03-28T21:04:07.208Z,20.85
2019-03-28T21:06:54.661Z,18.73
2019-03-28T21:09:41.379Z,18.60
2019-03-28T21:12:28.426Z,19.73
2019-03-28T21:15:15.721Z,25.30
2019-03-28T21:18:03.759Z,31.75
2019-03-28T21:20:50.480Z,23.32
2019-03-28T21:23:38.255Z,28.57
2019-03-28T21:26:25.689Z,34.10
2019-03-28T21:29:12.291Z,36.80
2019-03-28T21:31:59.707Z,31.55
2019-03-28T21:34:47.200Z,37.00
2019-03-28T21:37:34.530Z,31.97
2019-03-28T21:40:20.961Z,27.37
2019-03-28T21:43:08.483Z,36.60
2019-03-28T21:45:55.702Z,31.85
2019-03-28T21:48:43.192Z,29.37
2019-03-28T21:51:30.468Z,29.18
2019-03-28T21:54:16.935Z,48.98
2019-03-28T21:57:04.180Z,40.00
2019-03-28T21:59:51.276Z,40.92
2019-03-28T22:02:37.735Z,37.25
2019-03-28T22:05:25.124Z,45.35
2019-03-28T22:08:11.700Z,32.60
2019-03-28T22:10:58.128Z,26.93
2019-03-28T22:13:44.973Z,28.62
2019-03-28T22:16:31.507Z,23.95
2019-03-28T22:19:18.623Z,23.80
2019-03-28T22:22:06.076Z,26.05
2019-03-28T22:24:53.354Z,23.90
2019-03-28T22:27:40.626Z,25.15
2019-03-28T22:30:27.906Z,24.30
2019-03-28T22:33:15.765Z,26.12
2019-03-28T22:36:02.686Z,24.75
2019-03-28T22:38:50.044Z,22.90
2019-03-28T22:41:37.447Z,21.35
2019-03-28T22:44:24.231Z,23.60
2019-03-28T22:47:12.388Z,23.12
2019-03-28T22:49:58.965Z,23.57
2019-03-28T22:55:39.415Z,24.47
2019-03-28T22:58:26.539Z,26.60
2019-03-28T23:01:13.577Z,22.58
2019-03-28T23:04:00.901Z,27.90
2019-03-28T23:06:30.752Z,30.00
2019-03-28T23:09:19.287Z,24.25
2019-03-28T23:30:19.676Z,20.32
2019-03-28T23:33:08.077Z,21.87
2019-03-28T23:35:56.497Z,21.95
